createdAt,value
2022-12-31T00:00:41.395Z,100582.66
2022-12-31T00:03:10.717Z,100603.50
2022-12-31T00:05:40.362Z,100597.44
2022-12-31T00:08:08.597Z,100604.44
2022-12-31T00:10:42.340Z,100602.78
2022-12-31T00:13:11.112Z,100599.31
2022-12-31T00:15:58.139Z,100602.78
2022-12-31T00:18:27.090Z,100614.88
2022-12-31T00:20:56.608Z,100607.06
2022-12-31T00:23:24.756Z,100611.41
2022-12-31T00:25:52.847Z,100618.38
2022-12-31T00:28:21.001Z,100616.78
2022-12-31T00:30:49.109Z,100616.69
2022-12-31T00:33:17.267Z,100625.34
2022-12-31T00:35:45.391Z,100628.84
2022-12-31T00:38:14.960Z,100624.53
2022-12-31T00:40:43.034Z,100625.34
2022-12-31T00:43:11.144Z,100625.34
2022-12-31T00:45:39.254Z,100621.81
2022-12-31T00:48:07.496Z,100625.31
2022-12-31T00:50:35.674Z,100637.41
2022-12-31T00:53:03.766Z,100630.53
2022-12-31T00:55:33.284Z,100624.44
2022-12-31T00:58:04.315Z,100630.53
2022-12-31T01:00:32.499Z,100643.56
2022-12-31T01:03:01.682Z,100641.84
2022-12-31T01:05:35.099Z,100642.69
2022-12-31T01:08:03.968Z,100641.88
2022-12-31T01:10:51.078Z,100640.25
2022-12-31T01:13:19.513Z,100639.34
2022-12-31T01:15:47.791Z,100635.94
2022-12-31T01:18:15.947Z,100635.84
2022-12-31T01:20:45.314Z,100645.44
2022-12-31T01:23:13.391Z,100638.47
2022-12-31T01:25:43.097Z,100640.28
2022-12-31T01:28:11.437Z,100641.19
2022-12-31T01:30:40.959Z,100640.25
2022-12-31T01:33:09.195Z,100643.72
2022-12-31T01:35:37.774Z,100639.44
2022-12-31T01:38:05.866Z,100641.22
2022-12-31T01:40:38.104Z,100644.69
2022-12-31T01:43:17.382Z,100651.66
2022-12-31T01:45:47.438Z,100655.06
2022-12-31T01:48:18.670Z,100637.69
2022-12-31T01:50:48.117Z,100643.72
2022-12-31T01:53:18.196Z,100643.72
2022-12-31T01:55:50.411Z,100636.72
2022-12-31T01:58:22.422Z,100646.25
2022-12-31T02:00:52.400Z,100641.00
2022-12-31T02:03:22.642Z,100632.34
2022-12-31T02:05:56.355Z,100649.72
2022-12-31T02:08:24.440Z,100653.25
2022-12-31T02:10:52.559Z,100655.06
2022-12-31T02:13:22.240Z,100656.91
2022-12-31T02:15:58.532Z,100652.50
2022-12-31T02:18:34.149Z,100658.59
2022-12-31T02:21:21.481Z,100651.59
2022-12-31T02:24:24.150Z,100651.59
2022-12-31T02:27:06.843Z,100648.00
2022-12-31T02:29:58.486Z,100639.28
2022-12-31T02:32:32.201Z,100650.53
2022-12-31T02:35:05.714Z,100660.13
2022-12-31T02:37:36.914Z,100660.13
2022-12-31T02:40:07.467Z,100656.75
2022-12-31T02:42:35.658Z,100647.25
2022-12-31T02:45:05.644Z,100652.31
2022-12-31T02:47:44.389Z,100658.31
2022-12-31T02:50:28.024Z,100654.88
2022-12-31T02:53:09.042Z,100659.16
2022-12-31T02:55:46.569Z,100652.22
2022-12-31T02:58:22.690Z,100646.97
2022-12-31T03:01:15.509Z,100633.97
2022-12-31T03:03:44.183Z,100631.41
2022-12-31T03:06:14.047Z,100634.84
2022-12-31T03:08:57.673Z,100631.41
2022-12-31T03:11:39.604Z,100633.13
2022-12-31T03:14:07.771Z,100640.94
2022-12-31T03:16:37.350Z,100639.25
2022-12-31T03:19:22.902Z,100624.38
2022-12-31T03:22:08.534Z,100625.22
2022-12-31T03:24:54.022Z,100645.19
2022-12-31T03:27:22.132Z,100630.41
2022-12-31T03:29:50.272Z,100632.06
2022-12-31T03:32:19.824Z,100636.41
2022-12-31T03:34:48.087Z,100635.56
2022-12-31T03:37:16.273Z,100636.38
2022-12-31T03:39:44.365Z,100639.84
2022-12-31T03:42:12.456Z,100641.66
2022-12-31T03:44:40.622Z,100637.28
2022-12-31T03:47:08.749Z,100638.19
2022-12-31T03:49:38.257Z,100626.84
2022-12-31T03:52:06.642Z,100622.50
2022-12-31T03:54:34.751Z,100627.66
2022-12-31T03:57:02.851Z,100630.19
2022-12-31T03:59:31.038Z,100623.22
2022-12-31T04:01:59.321Z,100631.00
2022-12-31T04:04:27.579Z,100637.13
2022-12-31T04:06:57.136Z,100631.91
2022-12-31T04:09:25.423Z,100629.22
2022-12-31T04:11:53.546Z,100616.25
2022-12-31T04:14:21.657Z,100630.16
2022-12-31T04:16:49.812Z,100636.22
2022-12-31T04:19:18.265Z,100643.28
2022-12-31T04:21:46.469Z,100646.75
2022-12-31T04:24:16.293Z,100645.88
2022-12-31T04:26:44.971Z,100643.28
2022-12-31T04:29:13.105Z,100653.78
2022-12-31T04:31:41.403Z,100645.97
2022-12-31T04:34:09.694Z,100650.31
2022-12-31T04:36:37.866Z,100650.38
2022-12-31T04:39:06.005Z,100650.31
2022-12-31T04:41:35.557Z,100660.75
2022-12-31T04:44:03.685Z,100669.41
2022-12-31T04:46:34.424Z,100663.28
2022-12-31T04:49:04.098Z,100663.31
2022-12-31T04:51:33.872Z,100667.69
2022-12-31T04:54:02.018Z,100670.25
2022-12-31T04:56:30.433Z,100684.22
2022-12-31T04:59:00.382Z,100686.06
2022-12-31T05:01:28.537Z,100690.41
2022-12-31T05:03:56.727Z,100691.31
2022-12-31T05:06:25.173Z,100698.25
2022-12-31T05:08:53.333Z,100704.34
2022-12-31T05:11:21.455Z,100694.69
2022-12-31T05:13:49.565Z,100712.03
2022-12-31T05:16:19.159Z,100715.59
2022-12-31T05:18:47.272Z,100717.34
2022-12-31T05:21:21.345Z,100705.16
2022-12-31T05:23:50.334Z,100709.53
2022-12-31T05:26:18.832Z,100706.06
2022-12-31T05:28:46.969Z,100697.53
2022-12-31T05:31:15.392Z,100704.47
2022-12-31T05:33:44.976Z,100712.28
2022-12-31T05:36:13.038Z,100724.44
2022-12-31T05:38:41.161Z,100721.84
2022-12-31T05:41:09.634Z,100727.94
2022-12-31T05:43:38.415Z,100738.44
2022-12-31T05:46:06.799Z,100737.56
2022-12-31T05:48:35.015Z,100744.56
2022-12-31T05:51:04.538Z,100742.78
2022-12-31T05:53:34.531Z,100752.31
2022-12-31T05:56:02.751Z,100745.38
2022-12-31T05:58:31.045Z,100757.44
2022-12-31T06:00:59.605Z,100750.53
2022-12-31T06:03:28.352Z,100743.53
2022-12-31T06:05:56.584Z,100742.66
2022-12-31T06:08:26.297Z,100747.06
2022-12-31T06:10:54.497Z,100745.31
2022-12-31T06:13:22.681Z,100751.34
2022-12-31T06:15:51.083Z,100753.97
2022-12-31T06:18:19.215Z,100759.16
2022-12-31T06:20:47.386Z,100741.75
2022-12-31T06:23:15.542Z,100743.47
2022-12-31T06:25:45.284Z,100733.91
2022-12-31T06:28:20.136Z,100722.69
2022-12-31T06:30:48.978Z,100744.28
2022-12-31T06:33:17.203Z,100754.72
2022-12-31T06:35:45.488Z,100759.88
2022-12-31T06:38:13.602Z,100757.25
2022-12-31T06:40:44.381Z,100758.97
2022-12-31T06:43:12.557Z,100763.25
2022-12-31T06:45:40.842Z,100766.69
2022-12-31T06:48:09.457Z,100769.28
2022-12-31T06:50:37.843Z,100771.91
2022-12-31T06:53:06.619Z,100760.50
2022-12-31T06:55:36.597Z,100775.28
2022-12-31T06:58:08.130Z,100771.78
2022-12-31T07:00:37.288Z,100763.97
2022-12-31T07:03:25.324Z,100777.00
2022-12-31T07:05:57.494Z,100776.16
2022-12-31T07:08:47.590Z,100773.59
2022-12-31T07:11:21.957Z,100775.28
2022-12-31T07:14:16.964Z,100789.09
2022-12-31T07:17:04.075Z,100784.72
2022-12-31T07:19:51.042Z,100787.25
2022-12-31T07:22:22.722Z,100788.16
2022-12-31T07:24:51.424Z,100788.97
2022-12-31T07:27:41.860Z,100787.25
2022-12-31T07:30:15.394Z,100791.59
2022-12-31T07:33:04.348Z,100801.97
2022-12-31T07:35:43.219Z,100803.59
2022-12-31T07:38:20.986Z,100795.84
2022-12-31T07:41:07.366Z,100805.25
2022-12-31T07:43:51.773Z,100788.81
2022-12-31T07:46:30.522Z,100802.69
2022-12-31T07:48:59.439Z,100800.13
2022-12-31T07:51:28.575Z,100822.72
2022-12-31T07:53:56.776Z,100810.44
2022-12-31T07:56:24.988Z,100815.63
2022-12-31T07:59:04.761Z,100814.56
2022-12-31T08:01:42.810Z,100803.16
2022-12-31T08:04:20.526Z,100800.50
2022-12-31T08:06:58.969Z,100808.22
2022-12-31T08:09:39.547Z,100816.78
2022-12-31T08:12:09.767Z,100833.19
2022-12-31T08:14:44.432Z,100837.50
2022-12-31T08:17:16.812Z,100833.19
2022-12-31T08:19:46.067Z,100827.19
2022-12-31T08:22:39.001Z,100850.66
2022-12-31T08:25:21.150Z,100859.22
2022-12-31T08:28:01.864Z,100857.41
2022-12-31T08:30:41.401Z,100862.44
2022-12-31T08:33:20.804Z,100871.00
2022-12-31T08:36:05.054Z,100866.53
2022-12-31T08:38:39.433Z,100877.75
2022-12-31T08:41:17.372Z,100891.44
2022-12-31T08:43:55.293Z,100900.88
2022-12-31T08:46:29.382Z,100899.09
2022-12-31T08:48:59.538Z,100902.38
2022-12-31T08:51:28.543Z,100891.53
2022-12-31T08:53:57.342Z,100885.13
2022-12-31T08:56:31.993Z,100870.75
2022-12-31T08:59:12.877Z,100874.78
2022-12-31T09:01:55.663Z,100881.59
2022-12-31T09:04:32.052Z,100893.44
2022-12-31T09:07:03.516Z,100885.28
2022-12-31T09:09:43.777Z,100889.50
2022-12-31T09:12:18.601Z,100885.28
2022-12-31T09:14:49.133Z,100880.91
2022-12-31T09:17:32.861Z,100882.44
2022-12-31T09:20:03.847Z,100881.47
2022-12-31T09:22:32.540Z,100874.63
2022-12-31T09:25:01.246Z,100878.84
2022-12-31T09:27:33.618Z,100870.09
2022-12-31T09:30:06.737Z,100871.28
2022-12-31T09:32:48.110Z,100860.91
2022-12-31T09:35:40.252Z,100856.72
2022-12-31T09:38:20.173Z,100851.53
2022-12-31T09:40:58.059Z,100867.03
2022-12-31T09:44:14.871Z,100845.34
2022-12-31T09:47:25.706Z,100843.38
2022-12-31T09:50:35.380Z,100838.59
2022-12-31T09:53:21.417Z,100828.00
2022-12-31T09:55:54.149Z,100825.91
2022-12-31T09:58:36.816Z,100835.19
2022-12-31T10:01:15.336Z,100816.72
2022-12-31T10:04:07.927Z,100817.91
2022-12-31T10:06:45.538Z,100803.72
2022-12-31T10:09:30.787Z,100803.25
2022-12-31T10:12:15.633Z,100822.53
2022-12-31T10:14:58.488Z,100808.19
2022-12-31T10:17:42.214Z,100825.41
2022-12-31T10:20:25.057Z,100826.06
2022-12-31T10:23:22.454Z,100825.53
2022-12-31T10:26:08.816Z,100815.22
2022-12-31T10:28:48.124Z,100809.78
2022-12-31T10:31:18.344Z,100825.25
2022-12-31T10:33:52.391Z,100838.06
2022-12-31T10:36:28.885Z,100830.97
2022-12-31T10:39:16.403Z,100822.97
2022-12-31T10:42:11.211Z,100824.72
2022-12-31T10:45:18.385Z,100821.94
2022-12-31T10:48:19.918Z,100824.41
2022-12-31T10:51:10.055Z,100819.16
2022-12-31T10:54:09.977Z,100817.41
2022-12-31T10:57:09.167Z,100815.09
2022-12-31T11:00:03.836Z,100821.41
2022-12-31T11:03:03.527Z,100811.94
2022-12-31T11:05:51.088Z,100831.75
2022-12-31T11:08:41.890Z,100817.28
2022-12-31T11:11:27.916Z,100801.63
2022-12-31T11:14:27.972Z,100793.00
2022-12-31T11:17:08.967Z,100790.41
2022-12-31T11:19:46.256Z,100802.88
2022-12-31T11:22:37.711Z,100791.38
2022-12-31T11:25:28.992Z,100786.94
2022-12-31T11:28:24.005Z,100782.97
2022-12-31T11:31:06.005Z,100792.31
2022-12-31T11:33:50.554Z,100800.81
2022-12-31T11:36:29.761Z,100779.81
2022-12-31T11:39:27.351Z,100792.94
2022-12-31T11:42:04.946Z,100799.09
2022-12-31T11:44:41.696Z,100797.13
2022-12-31T11:47:27.259Z,100791.59
2022-12-31T11:50:04.607Z,100789.38
2022-12-31T11:52:50.868Z,100780.28
2022-12-31T11:55:28.827Z,100780.00
2022-12-31T11:58:01.996Z,100785.97
2022-12-31T12:00:33.899Z,100796.25
2022-12-31T12:03:06.039Z,100804.75
2022-12-31T12:05:36.347Z,100809.09
2022-12-31T12:08:05.215Z,100806.38
2022-12-31T12:10:39.640Z,100791.44
2022-12-31T12:13:15.249Z,100805.34
2022-12-31T12:15:48.410Z,100808.81
2022-12-31T12:18:28.180Z,100802.66
2022-12-31T12:21:04.961Z,100799.88
2022-12-31T12:23:33.595Z,100802.50
2022-12-31T12:26:02.299Z,100799.88
2022-12-31T12:28:32.779Z,100802.41
2022-12-31T12:31:02.854Z,100814.22
2022-12-31T12:33:44.326Z,100813.81
2022-12-31T12:36:15.711Z,100815.22
2022-12-31T12:38:44.074Z,100814.91
2022-12-31T12:41:14.148Z,100782.53
2022-12-31T12:43:42.375Z,100796.34
2022-12-31T12:46:21.968Z,100791.00
2022-12-31T12:48:57.724Z,100794.47
2022-12-31T12:51:38.757Z,100800.66
2022-12-31T12:54:17.472Z,100790.03
2022-12-31T12:56:54.734Z,100791.00
2022-12-31T12:59:50.949Z,100793.47
2022-12-31T13:02:42.818Z,100785.44
2022-12-31T13:05:28.102Z,100784.78
2022-12-31T13:08:13.656Z,100787.03
2022-12-31T13:11:00.838Z,100789.47
2022-12-31T13:13:44.068Z,100782.34
2022-12-31T13:16:19.639Z,100788.44
2022-12-31T13:18:57.534Z,100798.91
2022-12-31T13:21:38.183Z,100786.59
2022-12-31T13:24:21.577Z,100791.16
2022-12-31T13:26:57.116Z,100802.66
2022-12-31T13:29:36.331Z,100788.03
2022-12-31T13:32:08.941Z,100783.03
2022-12-31T13:34:42.075Z,100807.41
2022-12-31T13:37:32.010Z,100798.81
2022-12-31T13:40:06.836Z,100805.84
2022-12-31T13:42:45.126Z,100806.03
2022-12-31T13:45:18.472Z,100809.50
2022-12-31T13:47:50.936Z,100802.50
2022-12-31T13:50:23.902Z,100806.56
2022-12-31T13:52:59.220Z,100806.69
2022-12-31T13:55:33.599Z,100818.47
2022-12-31T13:58:15.499Z,100815.22
2022-12-31T14:00:49.009Z,100812.16
2022-12-31T14:03:23.553Z,100814.06
2022-12-31T14:05:56.420Z,100799.59
2022-12-31T14:08:26.053Z,100815.47
2022-12-31T14:11:06.777Z,100819.09
2022-12-31T14:13:58.894Z,100826.16
2022-12-31T14:16:36.947Z,100822.75
2022-12-31T14:19:16.034Z,100828.00
2022-12-31T14:21:50.248Z,100840.97
2022-12-31T14:24:34.171Z,100829.56
2022-12-31T14:27:07.193Z,100823.59
2022-12-31T14:29:41.126Z,100831.72
2022-12-31T14:32:47.605Z,100838.19
2022-12-31T14:35:33.904Z,100839.19
2022-12-31T14:38:12.342Z,100833.38
2022-12-31T14:40:54.404Z,100840.44
2022-12-31T14:43:31.812Z,100839.59
2022-12-31T14:46:10.617Z,100838.88
2022-12-31T14:48:49.780Z,100836.47
2022-12-31T14:51:18.481Z,100839.31
2022-12-31T14:53:54.691Z,100842.78
2022-12-31T14:56:33.412Z,100835.22
2022-12-31T14:59:04.145Z,100824.94
2022-12-31T15:01:32.511Z,100838.81
2022-12-31T15:04:00.852Z,100830.25
2022-12-31T15:06:52.897Z,100843.47
2022-12-31T15:09:51.878Z,100840.91
2022-12-31T15:12:43.371Z,100840.25
2022-12-31T15:15:24.904Z,100839.41
2022-12-31T15:18:04.882Z,100840.31
2022-12-31T15:21:03.790Z,100834.31
2022-12-31T15:23:36.754Z,100833.53
2022-12-31T15:26:06.382Z,100828.34
2022-12-31T15:28:39.731Z,100847.63
2022-12-31T15:31:19.110Z,100847.63
2022-12-31T15:34:02.543Z,100840.88
2022-12-31T15:36:33.229Z,100838.19
2022-12-31T15:39:28.590Z,100847.09
2022-12-31T15:44:52.056Z,100845.50
2022-12-31T15:47:28.545Z,100844.72
2022-12-31T15:49:57.816Z,100849.28
2022-12-31T15:52:40.791Z,100838.88
2022-12-31T15:55:09.156Z,100851.84
2022-12-31T15:57:41.220Z,100854.47
2022-12-31T16:00:19.320Z,100853.47
2022-12-31T16:02:49.784Z,100849.34
2022-12-31T16:05:23.523Z,100850.09
2022-12-31T16:07:55.254Z,100856.25
2022-12-31T16:10:28.223Z,100859.78
2022-12-31T16:12:57.630Z,100863.38
2022-12-31T16:15:29.527Z,100858.13
2022-12-31T16:18:03.339Z,100856.50
2022-12-31T16:20:33.959Z,100863.47
2022-12-31T16:23:04.597Z,100844.31
2022-12-31T16:25:34.249Z,100844.31
2022-12-31T16:28:04.082Z,100848.94
2022-12-31T16:30:36.511Z,100844.78
2022-12-31T16:33:07.115Z,100841.53
2022-12-31T16:35:37.849Z,100845.19
2022-12-31T16:38:14.759Z,100834.91
2022-12-31T16:40:44.772Z,100834.97
2022-12-31T16:43:30.647Z,100842.88
2022-12-31T16:46:10.072Z,100847.19
2022-12-31T16:48:41.514Z,100845.50
2022-12-31T16:51:19.152Z,100841.97
2022-12-31T16:53:48.479Z,100850.75
2022-12-31T16:56:27.515Z,100850.75
2022-12-31T16:59:01.953Z,100848.22
2022-12-31T17:01:35.305Z,100840.25
2022-12-31T17:04:07.920Z,100845.59
2022-12-31T17:06:36.196Z,100845.66
2022-12-31T17:09:14.577Z,100856.25
2022-12-31T17:11:51.774Z,100866.72
2022-12-31T17:14:23.939Z,100868.44
2022-12-31T17:17:09.307Z,100864.00
2022-12-31T17:19:42.720Z,100853.38
2022-12-31T17:22:17.763Z,100847.22
2022-12-31T17:24:49.637Z,100851.66
2022-12-31T17:27:18.945Z,100856.06
2022-12-31T17:29:48.441Z,100856.13
2022-12-31T17:32:32.448Z,100866.50
2022-12-31T17:35:00.662Z,100853.50
2022-12-31T17:37:30.614Z,100877.09
2022-12-31T17:40:32.292Z,100880.56
2022-12-31T17:42:50.553Z,100877.94
2022-12-31T17:45:22.573Z,100886.59
2022-12-31T17:47:55.867Z,100875.22
2022-12-31T17:50:26.246Z,100886.53
2022-12-31T17:52:57.203Z,100885.72
2022-12-31T17:55:25.488Z,100885.75
2022-12-31T17:57:56.961Z,100888.44
2022-12-31T18:00:27.365Z,100886.91
2022-12-31T18:02:57.269Z,100894.81
2022-12-31T18:05:26.146Z,100874.06
2022-12-31T18:07:54.748Z,100882.91
2022-12-31T18:10:25.772Z,100883.75
2022-12-31T18:12:54.233Z,100876.88
2022-12-31T18:15:26.921Z,100863.06
2022-12-31T18:17:56.743Z,100873.34
2022-12-31T18:20:25.826Z,100875.16
2022-12-31T18:22:55.821Z,100872.56
2022-12-31T18:25:25.846Z,100883.03
2022-12-31T18:27:54.339Z,100872.78
2022-12-31T18:30:23.538Z,100889.50
2022-12-31T18:32:51.956Z,100890.41
2022-12-31T18:38:15.027Z,100894.19
2022-12-31T18:40:46.854Z,100889.22
2022-12-31T18:43:18.147Z,100897.94
2022-12-31T18:45:46.724Z,100897.97
2022-12-31T18:48:15.447Z,100901.44
2022-12-31T18:50:46.289Z,100887.66
2022-12-31T18:53:18.340Z,100907.66
2022-12-31T18:55:49.278Z,100910.25
2022-12-31T18:58:17.993Z,100919.06
2022-12-31T19:00:47.663Z,100915.41
2022-12-31T19:03:17.607Z,100923.19
2022-12-31T19:05:49.877Z,100914.47
2022-12-31T19:08:18.435Z,100916.94
2022-12-31T19:10:47.390Z,100907.44
2022-12-31T19:13:18.291Z,100907.13
2022-12-31T19:15:49.472Z,100908.66
2022-12-31T19:18:17.815Z,100914.75
2022-12-31T19:20:47.865Z,100913.84
2022-12-31T19:23:18.433Z,100910.47
2022-12-31T19:25:48.079Z,100911.44
2022-12-31T19:28:18.795Z,100901.00
2022-12-31T19:30:47.690Z,100903.81
2022-12-31T19:33:16.671Z,100903.09
2022-12-31T19:35:51.523Z,100908.25
2022-12-31T19:38:21.842Z,100905.66
2022-12-31T19:40:51.327Z,100899.63
2022-12-31T19:43:22.094Z,100907.78
2022-12-31T19:45:51.598Z,100914.34
2022-12-31T19:48:25.827Z,100918.97
2022-12-31T19:51:00.095Z,100916.41
2022-12-31T19:53:29.330Z,100913.78
2022-12-31T19:55:57.619Z,100913.00
2022-12-31T19:58:27.313Z,100905.22
2022-12-31T20:01:01.911Z,100895.84
2022-12-31T20:03:31.319Z,100902.78
2022-12-31T20:06:06.495Z,100892.38
2022-12-31T20:08:35.165Z,100897.47
2022-12-31T20:11:10.009Z,100884.41
2022-12-31T20:13:38.641Z,100896.38
2022-12-31T20:16:09.582Z,100898.06
2022-12-31T20:18:39.502Z,100896.38
2022-12-31T20:21:13.037Z,100883.41
2022-12-31T20:23:41.612Z,100885.25
2022-12-31T20:26:09.944Z,100887.03
2022-12-31T20:28:38.795Z,100881.06
2022-12-31T20:31:08.097Z,100882.03
2022-12-31T20:33:36.454Z,100889.00
2022-12-31T20:36:06.244Z,100885.47
2022-12-31T20:38:36.122Z,100889.84
2022-12-31T20:41:05.889Z,100883.72
2022-12-31T20:43:34.364Z,100883.66
2022-12-31T20:46:12.664Z,100890.59
2022-12-31T20:48:43.040Z,100893.13
2022-12-31T20:51:11.573Z,100899.34
2022-12-31T20:53:41.497Z,100907.19
2022-12-31T20:56:10.634Z,100902.06
2022-12-31T20:58:38.944Z,100894.25
2022-12-31T21:01:08.584Z,100895.06
2022-12-31T21:04:04.142Z,100890.84
2022-12-31T21:06:25.860Z,100883.97
2022-12-31T21:08:56.214Z,100885.69
2022-12-31T21:11:41.955Z,100892.56
2022-12-31T21:14:10.273Z,100890.78
2022-12-31T21:16:38.443Z,100888.13
2022-12-31T21:19:06.742Z,100883.06
2022-12-31T21:21:35.244Z,100895.16
2022-12-31T21:24:05.127Z,100895.13
2022-12-31T21:26:34.534Z,100910.78
2022-12-31T21:29:02.775Z,100901.38
2022-12-31T21:31:31.047Z,100908.53
2022-12-31T21:33:59.344Z,100918.03
2022-12-31T21:36:27.623Z,100915.47
2022-12-31T21:38:55.827Z,100919.00
2022-12-31T21:41:42.871Z,100911.25
2022-12-31T21:44:17.041Z,100922.72
2022-12-31T21:47:16.108Z,100921.00
2022-12-31T21:49:33.581Z,100933.25
2022-12-31T21:52:19.545Z,100937.59
2022-12-31T21:55:04.655Z,100935.81
2022-12-31T21:57:59.032Z,100929.72
2022-12-31T22:00:43.052Z,100926.31
2022-12-31T22:03:31.886Z,100925.47
2022-12-31T22:06:01.690Z,100939.41
2022-12-31T22:08:31.679Z,100941.09
2022-12-31T22:10:59.954Z,100936.72
2022-12-31T22:13:29.881Z,100933.09
2022-12-31T22:16:04.896Z,100935.66
2022-12-31T22:18:35.812Z,100928.88
2022-12-31T22:21:09.628Z,100934.13
2022-12-31T22:23:43.349Z,100945.47
2022-12-31T22:26:14.944Z,100936.75
2022-12-31T22:28:46.254Z,100928.97
2022-12-31T22:31:16.081Z,100938.63
2022-12-31T22:33:45.320Z,100935.13
2022-12-31T22:36:15.804Z,100930.63
2022-12-31T22:38:44.447Z,100932.41
2022-12-31T22:41:14.629Z,100922.88
2022-12-31T22:43:49.171Z,100923.81
2022-12-31T22:46:19.360Z,100915.16
2022-12-31T22:48:48.237Z,100917.78
2022-12-31T22:51:17.291Z,100917.88
2022-12-31T22:53:45.739Z,100917.97
2022-12-31T22:56:15.666Z,100923.28
2022-12-31T22:58:45.860Z,100919.88
2022-12-31T23:01:20.446Z,100924.41
2022-12-31T23:03:50.581Z,100916.63
2022-12-31T23:06:19.758Z,100909.75
2022-12-31T23:09:10.467Z,100902.88
2022-12-31T23:11:39.724Z,100898.59
2022-12-31T23:14:29.201Z,100905.56
2022-12-31T23:17:29.577Z,100913.41
2022-12-31T23:20:18.063Z,100896.22
2022-12-31T23:23:03.550Z,100906.66
2022-12-31T23:25:32.715Z,100913.72
2022-12-31T23:28:00.994Z,100917.22
2022-12-31T23:30:30.646Z,100921.56
2022-12-31T23:32:58.825Z,100919.81
2022-12-31T23:35:27.236Z,100918.94
2022-12-31T23:37:55.635Z,100909.38
2022-12-31T23:40:24.079Z,100917.16
2022-12-31T23:42:52.304Z,100924.13
2022-12-31T23:45:20.578Z,100923.22
2022-12-31T23:47:50.173Z,100933.69
2022-12-31T23:50:18.584Z,100927.72
2022-12-31T23:52:46.858Z,100931.16
2022-12-31T23:55:15.397Z,100921.66
2022-12-31T23:57:43.643Z,100912.94
